Time;durP1;ratioP1;P1;durP2;ratioP2;P2;SDS_P1;SDS_P2;PMS_P1;PMS_P2;Temp;Humidity;BMP_temperature;BMP_pressure;BME280_temperature;BME280_humidity;BME280_pressure;Samples;Min_cycle;Max_cycle;Signal;HPM_P1;HPM_P2
2021/10/24 00:02:11;;;;;;;6.35;3.13;;;;;;;;;;5039316;28;20048;-56
2021/10/24 00:04:37;;;;;;;3.88;2.85;;;;;;;;;;5054455;28;20376;-55
2021/10/24 00:07:04;;;;;;;7.95;3.08;;;;;;;;;;5053656;28;20037;-55
2021/10/24 00:09:29;;;;;;;5.55;2.85;;;;;;;;;;5054642;28;20055;-56
2021/10/24 00:11:55;;;;;;;8.02;3.25;;;;;;;;;;5054380;28;20025;-55
2021/10/24 00:14:21;;;;;;;4.72;3.20;;;;;;;;;;5054352;28;20442;-55
2021/10/24 00:16:47;;;;;;;4.05;3.22;;;;;;;;;;5053619;28;20437;-56
2021/10/24 00:19:13;;;;;;;4.88;3.03;;;;;;;;;;5054229;28;20059;-56
2021/10/24 00:21:39;;;;;;;5.22;3.40;;;;;;;;;;5054429;28;20025;-56
2021/10/24 00:24:05;;;;;;;5.50;2.92;;;;;;;;;;5054210;28;20025;-56
2021/10/24 00:26:31;;;;;;;4.20;2.55;;;;;;;;;;5053427;28;20025;-56
2021/10/24 00:28:57;;;;;;;4.70;2.67;;;;;;;;;;5054116;28;20033;-56
2021/10/24 00:31:24;;;;;;;6.43;3.35;;;;;;;;;;5054099;28;20025;-56
2021/10/24 00:33:50;;;;;;;2.55;1.77;;;;;;;;;;5053851;28;20029;-55
2021/10/24 00:36:16;;;;;;;5.53;3.35;;;;;;;;;;5053116;28;20033;-57
2021/10/24 00:38:42;;;;;;;4.05;2.83;;;;;;;;;;5053976;28;20068;-56
2021/10/24 00:41:08;;;;;;;5.70;2.50;;;;;;;;;;5053964;28;20528;-56
2021/10/24 00:43:34;;;;;;;7.45;2.88;;;;;;;;;;5053734;28;20079;-56
2021/10/24 00:46:00;;;;;;;3.55;2.17;;;;;;;;;;5053818;28;20032;-56
2021/10/24 00:48:26;;;;;;;5.80;2.58;;;;;;;;;;5052867;28;20137;-56
2021/10/24 00:50:52;;;;;;;5.90;2.75;;;;;;;;;;5053897;28;20123;-54
2021/10/24 00:53:18;;;;;;;4.90;2.38;;;;;;;;;;5053577;28;20584;-54
2021/10/24 00:55:45;;;;;;;4.95;2.58;;;;;;;;;;5053585;28;20025;-56
2021/10/24 00:58:12;;;;;;;5.50;3.13;;;;;;;;;;5052725;28;20028;-56
2021/10/24 01:00:38;;;;;;;3.22;2.20;;;;;;;;;;5053609;28;20021;-56
2021/10/24 01:03:04;;;;;;;6.35;2.45;;;;;;;;;;5041101;28;20036;-56
2021/10/24 01:05:31;;;;;;;6.22;2.42;;;;;;;;;;5033620;28;20029;-56
2021/10/24 01:07:59;;;;;;;5.60;2.13;;;;;;;;;;5032797;28;20034;-56
2021/10/24 01:10:25;;;;;;;5.55;2.63;;;;;;;;;;5033312;28;20476;-56
2021/10/24 01:12:51;;;;;;;7.28;2.72;;;;;;;;;;5033328;28;20049;-55
2021/10/24 01:15:18;;;;;;;7.78;2.63;;;;;;;;;;5033162;28;20459;-55
2021/10/24 01:17:44;;;;;;;6.53;2.60;;;;;;;;;;5032273;28;20037;-56
2021/10/24 01:20:15;;;;;;;8.27;3.47;;;;;;;;;;5033375;28;20026;-56
2021/10/24 01:22:41;;;;;;;3.92;2.63;;;;;;;;;;5033263;28;20460;-56
2021/10/24 01:25:07;;;;;;;8.88;2.45;;;;;;;;;;5033005;28;20033;-53
2021/10/24 01:27:35;;;;;;;4.57;2.35;;;;;;;;;;5032135;28;20355;-56
2021/10/24 01:30:02;;;;;;;5.65;2.80;;;;;;;;;;5032650;28;20033;-55
2021/10/24 01:32:28;;;;;;;5.53;2.53;;;;;;;;;;5033045;28;20455;-55
2021/10/24 01:34:55;;;;;;;4.35;2.58;;;;;;;;;;5032959;28;20029;-57
2021/10/24 01:37:21;;;;;;;6.95;2.67;;;;;;;;;;5032299;28;20041;-56
2021/10/24 01:39:47;;;;;;;7.53;3.13;;;;;;;;;;5032716;28;20029;-54
2021/10/24 01:42:13;;;;;;;7.43;2.92;;;;;;;;;;5032853;28;20432;-54
2021/10/24 01:44:39;;;;;;;3.70;2.28;;;;;;;;;;5032872;28;20025;-56
2021/10/24 01:47:05;;;;;;;6.88;2.35;;;;;;;;;;5032356;28;20063;-53
2021/10/24 01:49:31;;;;;;;4.78;2.88;;;;;;;;;;5032690;28;20049;-56
2021/10/24 01:52:00;;;;;;;4.50;2.15;;;;;;;;;;5032785;28;20017;-56
2021/10/24 01:54:26;;;;;;;8.55;2.90;;;;;;;;;;5032535;28;20045;-56
2021/10/24 01:56:52;;;;;;;4.07;2.55;;;;;;;;;;5031493;28;20072;-55
2021/10/24 01:59:18;;;;;;;5.20;2.88;;;;;;;;;;5032660;28;20033;-56
2021/10/24 02:01:44;;;;;;;10.15;3.88;;;;;;;;;;5033324;28;20101;-53
2021/10/24 02:04:10;;;;;;;7.22;2.85;;;;;;;;;;5052273;28;20382;-55
2021/10/24 02:06:36;;;;;;;7.85;3.60;;;;;;;;;;5051952;28;20425;-54
2021/10/24 02:09:02;;;;;;;3.80;2.67;;;;;;;;;;5052338;28;20037;-57
2021/10/24 02:11:28;;;;;;;3.63;2.47;;;;;;;;;;5052427;28;20061;-56
2021/10/24 02:13:54;;;;;;;8.57;2.63;;;;;;;;;;5051823;28;20110;-57
2021/10/24 02:16:20;;;;;;;7.25;3.53;;;;;;;;;;5051613;28;20039;-55
2021/10/24 02:18:46;;;;;;;8.00;2.53;;;;;;;;;;5052341;28;20086;-55
2021/10/24 02:21:12;;;;;;;5.63;2.38;;;;;;;;;;5052200;28;20029;-56
2021/10/24 02:23:38;;;;;;;5.90;3.20;;;;;;;;;;5052204;28;20139;-57
2021/10/24 02:26:04;;;;;;;7.40;3.58;;;;;;;;;;5051948;28;20072;-55
2021/10/24 02:28:30;;;;;;;7.30;3.17;;;;;;;;;;5051154;28;20029;-56
2021/10/24 02:30:56;;;;;;;4.70;2.95;;;;;;;;;;5052267;28;20112;-56
2021/10/24 02:33:22;;;;;;;6.57;3.15;;;;;;;;;;5052193;28;20094;-54
2021/10/24 02:35:48;;;;;;;6.00;3.67;;;;;;;;;;5052025;28;20486;-57
2021/10/24 02:38:14;;;;;;;4.20;2.70;;;;;;;;;;5051473;28;20467;-57
2021/10/24 02:40:42;;;;;;;3.97;2.75;;;;;;;;;;5051976;28;20506;-56
2021/10/24 02:43:08;;;;;;;3.63;2.75;;;;;;;;;;5051868;28;20439;-56
2021/10/24 02:45:36;;;;;;;5.82;3.58;;;;;;;;;;5051876;28;20060;-55
2021/10/24 02:48:02;;;;;;;6.70;3.40;;;;;;;;;;5051379;28;20029;-56
2021/10/24 02:50:28;;;;;;;10.70;3.08;;;;;;;;;;5051843;28;20103;-56
2021/10/24 02:52:54;;;;;;;4.65;3.20;;;;;;;;;;5052292;28;20130;-57
2021/10/24 02:55:20;;;;;;;5.13;3.17;;;;;;;;;;5051639;28;20036;-56
2021/10/24 02:57:46;;;;;;;6.28;3.13;;;;;;;;;;5050909;28;20375;-57
2021/10/24 03:00:12;;;;;;;4.20;3.15;;;;;;;;;;5051687;28;20025;-55
2021/10/24 03:02:38;;;;;;;9.23;3.65;;;;;;;;;;5043828;28;20088;-57
2021/10/24 03:05:06;;;;;;;8.00;3.60;;;;;;;;;;5031667;28;20030;-56
2021/10/24 03:07:32;;;;;;;3.97;2.45;;;;;;;;;;5031271;28;20033;-56
2021/10/24 03:09:58;;;;;;;8.15;4.63;;;;;;;;;;5035271;28;20033;-56
2021/10/24 03:12:24;;;;;;;5.68;3.55;;;;;;;;;;5035618;28;20021;-57
2021/10/24 03:14:50;;;;;;;8.70;4.07;;;;;;;;;;5035516;28;20040;-55
2021/10/24 03:17:15;;;;;;;3.80;2.70;;;;;;;;;;5034799;28;20029;-55
2021/10/24 03:19:41;;;;;;;6.43;2.67;;;;;;;;;;5035563;28;20044;-56
2021/10/24 03:22:08;;;;;;;5.45;3.28;;;;;;;;;;5035453;28;20025;-56
2021/10/24 03:24:34;;;;;;;6.97;2.95;;;;;;;;;;5035360;28;20029;-55
2021/10/24 03:27:00;;;;;;;6.50;3.10;;;;;;;;;;5034387;28;20080;-56
2021/10/24 03:29:26;;;;;;;4.95;2.75;;;;;;;;;;5035297;28;20057;-57
2021/10/24 03:31:52;;;;;;;6.22;3.47;;;;;;;;;;5031262;28;20057;-56
2021/10/24 03:34:19;;;;;;;4.40;2.88;;;;;;;;;;5035380;28;20248;-56
2021/10/24 03:36:45;;;;;;;8.23;3.95;;;;;;;;;;5034633;28;20483;-56
2021/10/24 03:39:11;;;;;;;5.72;3.38;;;;;;;;;;5035203;28;20038;-57
2021/10/24 03:41:37;;;;;;;4.63;2.88;;;;;;;;;;5035098;28;20497;-56
2021/10/24 03:44:03;;;;;;;5.60;3.35;;;;;;;;;;5035019;28;20430;-56
2021/10/24 03:46:33;;;;;;;3.72;2.95;;;;;;;;;;5034607;28;20116;-57
2021/10/24 03:48:59;;;;;;;7.35;3.63;;;;;;;;;;5035036;28;20025;-56
2021/10/24 03:51:25;;;;;;;4.53;3.60;;;;;;;;;;5035001;28;20026;-56
2021/10/24 03:53:51;;;;;;;5.90;3.25;;;;;;;;;;5034944;28;20121;-56
2021/10/24 03:56:18;;;;;;;7.20;4.10;;;;;;;;;;5033911;28;20453;-58
2021/10/24 03:58:44;;;;;;;7.47;5.22;;;;;;;;;;5035042;28;20029;-56
2021/10/24 04:01:10;;;;;;;8.10;4.25;;;;;;;;;;5034658;28;20029;-54
2021/10/24 04:03:36;;;;;;;6.95;4.63;;;;;;;;;;5050929;28;20033;-57
2021/10/24 04:06:03;;;;;;;4.67;3.67;;;;;;;;;;5054873;28;20025;-56
2021/10/24 04:08:30;;;;;;;6.82;4.32;;;;;;;;;;5053924;28;20450;-56
2021/10/24 04:10:56;;;;;;;11.57;4.68;;;;;;;;;;5054660;28;20041;-57
2021/10/24 04:13:22;;;;;;;4.25;2.95;;;;;;;;;;5054711;28;20467;-57
2021/10/24 04:15:48;;;;;;;6.72;4.10;;;;;;;;;;5054119;28;20037;-55
2021/10/24 04:18:14;;;;;;;5.95;3.38;;;;;;;;;;5053883;28;20390;-56
2021/10/24 04:20:40;;;;;;;5.25;3.58;;;;;;;;;;5053866;28;20028;-55
2021/10/24 04:23:07;;;;;;;5.03;3.25;;;;;;;;;;5054093;28;20025;-57
2021/10/24 04:25:33;;;;;;;4.45;3.03;;;;;;;;;;5054200;28;20086;-55
2021/10/24 04:27:59;;;;;;;6.80;3.47;;;;;;;;;;5053583;28;20033;-55
2021/10/24 04:30:26;;;;;;;9.32;4.18;;;;;;;;;;5054288;28;20442;-56
2021/10/24 04:32:52;;;;;;;8.05;3.10;;;;;;;;;;5053949;28;20044;-55
2021/10/24 04:35:18;;;;;;;8.70;2.95;;;;;;;;;;5053800;28;20094;-55
2021/10/24 04:37:45;;;;;;;8.30;4.20;;;;;;;;;;5052870;28;20037;-56
2021/10/24 04:40:11;;;;;;;4.07;2.72;;;;;;;;;;5054090;28;20040;-55
2021/10/24 04:42:37;;;;;;;3.58;2.55;;;;;;;;;;5053940;28;20021;-57
2021/10/24 04:45:04;;;;;;;5.40;3.05;;;;;;;;;;5053867;28;20032;-56
2021/10/24 04:47:30;;;;;;;2.97;2.60;;;;;;;;;;5052886;28;20029;-56
2021/10/24 04:49:56;;;;;;;4.80;2.83;;;;;;;;;;5053733;28;20092;-55
2021/10/24 04:52:22;;;;;;;4.25;3.03;;;;;;;;;;5053481;28;20434;-53
2021/10/24 04:54:48;;;;;;;4.28;2.78;;;;;;;;;;5053613;28;20374;-56
2021/10/24 04:57:14;;;;;;;9.80;3.35;;;;;;;;;;5053036;28;20033;-54
2021/10/24 04:59:40;;;;;;;4.40;2.92;;;;;;;;;;5053682;28;20052;-56
2021/10/24 05:02:07;;;;;;;5.80;3.58;;;;;;;;;;5053388;28;20059;-55
2021/10/24 05:04:33;;;;;;;6.18;3.38;;;;;;;;;;5053640;28;20025;-56
2021/10/24 05:06:58;;;;;;;4.15;2.88;;;;;;;;;;5052509;28;20036;-56
2021/10/24 05:09:24;;;;;;;4.75;2.97;;;;;;;;;;5053691;28;20355;-55
2021/10/24 05:11:50;;;;;;;3.25;2.50;;;;;;;;;;5053515;28;20378;-56
2021/10/24 05:14:16;;;;;;;4.75;3.25;;;;;;;;;;5053509;28;20032;-56
2021/10/24 05:16:42;;;;;;;4.68;2.83;;;;;;;;;;5052121;28;20035;-56
2021/10/24 05:19:08;;;;;;;9.55;3.10;;;;;;;;;;5053297;28;20055;-56
2021/10/24 05:21:34;;;;;;;7.22;3.90;;;;;;;;;;5052853;28;20549;-55
2021/10/24 05:24:01;;;;;;;6.65;3.25;;;;;;;;;;5053343;28;20025;-57
2021/10/24 05:26:27;;;;;;;4.43;3.75;;;;;;;;;;5052266;28;20033;-56
2021/10/24 05:28:53;;;;;;;5.22;3.50;;;;;;;;;;5053214;28;20119;-57
2021/10/24 05:31:18;;;;;;;7.03;3.70;;;;;;;;;;5052250;28;20086;-57
2021/10/24 05:33:45;;;;;;;5.00;3.03;;;;;;;;;;5052742;28;20409;-55
2021/10/24 05:36:11;;;;;;;3.83;2.80;;;;;;;;;;5052217;28;20044;-56
2021/10/24 05:38:37;;;;;;;5.57;2.63;;;;;;;;;;5053386;28;20471;-56
2021/10/24 05:41:03;;;;;;;3.78;2.65;;;;;;;;;;5052988;28;20090;-57
2021/10/24 05:43:29;;;;;;;3.65;2.83;;;;;;;;;;5052757;28;20040;-55
2021/10/24 05:45:55;;;;;;;4.03;2.75;;;;;;;;;;5052647;28;20039;-56
2021/10/24 05:48:21;;;;;;;4.40;2.60;;;;;;;;;;5051814;28;20482;-57
2021/10/24 05:50:47;;;;;;;4.85;2.85;;;;;;;;;;5052778;28;20112;-57
2021/10/24 05:53:13;;;;;;;4.95;2.42;;;;;;;;;;5052706;28;20029;-57
2021/10/24 05:55:39;;;;;;;7.80;3.70;;;;;;;;;;5052394;28;20522;-57
2021/10/24 05:58:05;;;;;;;5.22;2.90;;;;;;;;;;5052101;28;20116;-57
2021/10/24 06:00:32;;;;;;;5.85;3.35;;;;;;;;;;5051517;28;20398;-56
2021/10/24 06:03:03;;;;;;;6.97;2.78;;;;;;;;;;5051770;28;20102;-56
2021/10/24 06:05:29;;;;;;;4.88;2.95;;;;;;;;;;5052763;28;20025;-54
2021/10/24 06:07:55;;;;;;;5.32;3.78;;;;;;;;;;5051566;28;20079;-57
2021/10/24 06:10:27;;;;;;;6.68;3.00;;;;;;;;;;5052516;28;20039;-57
2021/10/24 06:12:53;;;;;;;4.97;3.40;;;;;;;;;;5052407;28;20033;-57
2021/10/24 06:15:20;;;;;;;5.68;3.28;;;;;;;;;;5051778;28;20082;-56
2021/10/24 06:17:47;;;;;;;4.97;2.70;;;;;;;;;;5051164;28;20090;-56
2021/10/24 06:20:13;;;;;;;4.90;3.55;;;;;;;;;;5052309;28;20104;-56
2021/10/24 06:22:39;;;;;;;6.45;2.92;;;;;;;;;;5052206;28;20029;-57
2021/10/24 06:25:06;;;;;;;4.82;2.95;;;;;;;;;;5052329;28;20035;-57
2021/10/24 06:27:32;;;;;;;4.37;2.57;;;;;;;;;;5050953;28;20078;-57
2021/10/24 06:29:58;;;;;;;7.25;3.88;;;;;;;;;;5051763;28;20417;-56
2021/10/24 06:32:24;;;;;;;4.70;3.22;;;;;;;;;;5051814;28;20104;-55
2021/10/24 06:34:50;;;;;;;3.55;2.97;;;;;;;;;;5052192;28;20355;-56
2021/10/24 06:37:19;;;;;;;6.60;3.78;;;;;;;;;;5062028;28;20033;-56
2021/10/24 06:39:46;;;;;;;4.68;3.20;;;;;;;;;;5050410;28;20129;-58
2021/10/24 06:42:12;;;;;;;5.43;3.33;;;;;;;;;;5053483;28;20052;-57
2021/10/24 06:44:38;;;;;;;5.32;3.08;;;;;;;;;;5054966;28;20386;-58
2021/10/24 06:47:04;;;;;;;5.55;3.97;;;;;;;;;;5054941;28;20045;-57
2021/10/24 06:49:30;;;;;;;5.97;3.33;;;;;;;;;;5062997;28;20077;-57
2021/10/24 06:51:57;;;;;;;4.28;2.95;;;;;;;;;;5063343;28;20025;-57
2021/10/24 06:54:23;;;;;;;7.30;4.88;;;;;;;;;;5055497;28;20117;-58
2021/10/24 06:56:49;;;;;;;7.05;4.70;;;;;;;;;;5074008;28;20032;-56
2021/10/24 06:59:15;;;;;;;4.55;3.67;;;;;;;;;;5059192;28;20508;-57
2021/10/24 07:01:41;;;;;;;7.43;5.18;;;;;;;;;;5073304;28;20032;-58
2021/10/24 07:04:11;;;;;;;6.43;4.78;;;;;;;;;;5066223;28;20063;-56
2021/10/24 07:06:36;;;;;;;7.65;4.55;;;;;;;;;;5072462;28;20045;-57
2021/10/24 07:09:03;;;;;;;5.68;4.82;;;;;;;;;;5073855;28;20071;-54
2021/10/24 07:11:29;;;;;;;6.55;4.95;;;;;;;;;;5075346;28;20028;-55
2021/10/24 07:13:55;;;;;;;8.75;6.05;;;;;;;;;;5062621;28;20025;-56
2021/10/24 07:16:21;;;;;;;7.03;5.32;;;;;;;;;;5068372;28;20040;-58
2021/10/24 07:18:46;;;;;;;11.30;5.50;;;;;;;;;;5063885;28;20593;-57
2021/10/24 07:21:12;;;;;;;8.02;4.93;;;;;;;;;;5056369;28;20033;-57
2021/10/24 07:23:38;;;;;;;7.13;5.22;;;;;;;;;;5071279;28;20035;-57
2021/10/24 07:26:04;;;;;;;5.85;4.80;;;;;;;;;;5068301;28;20085;-57
2021/10/24 07:28:30;;;;;;;7.63;5.32;;;;;;;;;;5065618;28;20386;-56
2021/10/24 07:30:56;;;;;;;10.30;5.72;;;;;;;;;;5062440;28;20037;-57
2021/10/24 07:33:22;;;;;;;10.27;5.28;;;;;;;;;;5071166;28;20043;-57
2021/10/24 07:35:48;;;;;;;11.73;5.03;;;;;;;;;;5058268;28;20029;-57
2021/10/24 07:38:15;;;;;;;7.20;5.13;;;;;;;;;;5073880;28;20033;-56
2021/10/24 07:40:46;;;;;;;8.48;5.15;;;;;;;;;;5066440;28;20037;-55
2021/10/24 07:43:19;;;;;;;6.32;4.72;;;;;;;;;;5067466;28;20036;-57
2021/10/24 07:45:46;;;;;;;10.63;5.65;;;;;;;;;;5057754;28;20561;-55
2021/10/24 07:48:12;;;;;;;5.18;4.20;;;;;;;;;;5059156;28;20036;-57
2021/10/24 07:50:38;;;;;;;6.72;4.88;;;;;;;;;;5062584;28;20362;-57
2021/10/24 07:53:04;;;;;;;7.70;5.05;;;;;;;;;;5068040;28;20079;-55
2021/10/24 07:55:31;;;;;;;8.38;6.57;;;;;;;;;;5057107;28;20043;-57
2021/10/24 07:57:57;;;;;;;7.63;5.07;;;;;;;;;;5065453;28;20245;-55
2021/10/24 08:00:23;;;;;;;6.32;4.70;;;;;;;;;;5065672;28;20094;-55
2021/10/24 08:02:49;;;;;;;6.95;4.65;;;;;;;;;;5062919;28;20021;-57
2021/10/24 08:05:16;;;;;;;7.38;4.57;;;;;;;;;;5069626;28;20078;-56
2021/10/24 08:07:43;;;;;;;9.35;4.45;;;;;;;;;;5057051;28;20777;-58
2021/10/24 08:10:09;;;;;;;6.82;4.50;;;;;;;;;;5066118;28;20033;-57
2021/10/24 08:12:36;;;;;;;5.53;4.20;;;;;;;;;;5063658;28;20028;-52
2021/10/24 08:15:02;;;;;;;7.97;4.50;;;;;;;;;;5067424;28;20402;-59
2021/10/24 08:17:28;;;;;;;6.50;5.03;;;;;;;;;;5065704;28;20033;-58
2021/10/24 08:19:54;;;;;;;7.28;4.40;;;;;;;;;;5054259;28;20025;-57
2021/10/24 08:22:21;;;;;;;5.38;4.63;;;;;;;;;;5049444;28;20056;-58
2021/10/24 08:24:47;;;;;;;7.20;5.15;;;;;;;;;;5055572;28;20037;-58
2021/10/24 08:27:13;;;;;;;7.70;4.43;;;;;;;;;;5045230;28;20036;-57
2021/10/24 08:29:40;;;;;;;9.18;4.63;;;;;;;;;;5050170;28;20025;-55
2021/10/24 08:32:09;;;;;;;8.85;4.88;;;;;;;;;;5053771;28;20424;-54
2021/10/24 08:34:36;;;;;;;6.85;4.65;;;;;;;;;;5051992;28;20029;-57
2021/10/24 08:37:03;;;;;;;5.13;4.63;;;;;;;;;;5051188;28;20044;-57
2021/10/24 08:39:29;;;;;;;6.75;4.30;;;;;;;;;;5051259;28;20044;-58
2021/10/24 08:41:55;;;;;;;8.20;4.65;;;;;;;;;;5052840;28;20063;-57
2021/10/24 08:44:23;;;;;;;9.77;5.43;;;;;;;;;;5051938;28;20029;-57
2021/10/24 08:46:49;;;;;;;6.55;4.95;;;;;;;;;;5052628;28;20044;-58
2021/10/24 08:49:15;;;;;;;7.03;4.60;;;;;;;;;;5054100;28;20025;-58
2021/10/24 08:51:41;;;;;;;8.48;4.80;;;;;;;;;;5053859;28;20470;-59
2021/10/24 08:54:08;;;;;;;7.43;4.70;;;;;;;;;;5053380;28;20382;-58
2021/10/24 08:56:34;;;;;;;5.78;4.72;;;;;;;;;;5053025;28;20040;-57
2021/10/24 08:59:01;;;;;;;9.88;4.65;;;;;;;;;;5053236;28;20504;-58
2021/10/24 09:01:27;;;;;;;6.88;4.80;;;;;;;;;;5053595;28;20033;-58
2021/10/24 09:04:07;;;;;;;7.57;4.70;;;;;;;;;;5053374;28;20041;-58
2021/10/24 09:06:44;;;;;;;8.45;5.60;;;;;;;;;;5051098;28;20512;-58
2021/10/24 09:09:20;;;;;;;5.10;3.70;;;;;;;;;;5053499;28;20086;-57
2021/10/24 09:12:07;;;;;;;6.70;4.47;;;;;;;;;;5053540;28;20023;-58
2021/10/24 09:14:43;;;;;;;7.28;4.10;;;;;;;;;;5053212;28;20024;-58
2021/10/24 09:17:25;;;;;;;6.57;4.80;;;;;;;;;;5052616;28;20115;-57
2021/10/24 09:19:53;;;;;;;6.85;4.13;;;;;;;;;;5053057;28;20029;-58
2021/10/24 09:22:30;;;;;;;7.45;5.32;;;;;;;;;;5053241;28;20132;-58
2021/10/24 09:24:59;;;;;;;7.25;4.90;;;;;;;;;;5053051;28;20020;-58
2021/10/24 09:27:25;;;;;;;7.88;5.18;;;;;;;;;;5052221;28;20055;-57
2021/10/24 09:29:51;;;;;;;7.55;4.93;;;;;;;;;;5053186;28;20025;-58
2021/10/24 09:32:17;;;;;;;6.57;4.57;;;;;;;;;;5053201;28;20025;-58
2021/10/24 09:34:43;;;;;;;5.85;4.63;;;;;;;;;;5052604;28;20394;-57
2021/10/24 09:37:09;;;;;;;5.97;4.70;;;;;;;;;;5051987;28;20030;-58
2021/10/24 09:39:37;;;;;;;6.90;4.85;;;;;;;;;;5052565;28;20386;-56
2021/10/24 09:42:13;;;;;;;6.75;4.30;;;;;;;;;;5052610;28;20035;-57
2021/10/24 09:44:59;;;;;;;7.90;4.13;;;;;;;;;;5052953;28;20082;-57
2021/10/24 09:47:25;;;;;;;5.97;3.53;;;;;;;;;;5052115;28;20382;-57
2021/10/24 09:49:51;;;;;;;9.95;4.93;;;;;;;;;;5052261;28;20439;-57
2021/10/24 09:52:33;;;;;;;5.82;4.28;;;;;;;;;;5052153;28;20140;-58
2021/10/24 09:54:59;;;;;;;4.68;3.85;;;;;;;;;;5052258;28;20028;-58
2021/10/24 09:57:25;;;;;;;5.00;4.32;;;;;;;;;;5051802;28;20021;-55
2021/10/24 09:59:53;;;;;;;7.93;4.60;;;;;;;;;;5052601;28;20450;-58
2021/10/24 10:02:19;;;;;;;5.32;4.38;;;;;;;;;;5051973;28;20475;-58
2021/10/24 10:04:46;;;;;;;8.18;4.20;;;;;;;;;;5052070;28;20028;-58
2021/10/24 10:07:12;;;;;;;4.07;3.65;;;;;;;;;;5051809;28;20123;-58
2021/10/24 10:09:39;;;;;;;7.63;4.10;;;;;;;;;;5052369;28;20021;-58
2021/10/24 10:12:05;;;;;;;6.15;4.63;;;;;;;;;;5052472;28;20053;-58
2021/10/24 10:14:35;;;;;;;5.22;4.40;;;;;;;;;;5052204;28;20458;-57
2021/10/24 10:17:05;;;;;;;6.15;4.18;;;;;;;;;;5050732;28;20033;-58
2021/10/24 10:19:31;;;;;;;10.20;5.03;;;;;;;;;;5052159;28;20048;-57
2021/10/24 10:21:57;;;;;;;5.65;4.28;;;;;;;;;;5052538;28;20301;-55
2021/10/24 10:24:35;;;;;;;4.50;3.40;;;;;;;;;;5052064;28;20070;-55
2021/10/24 10:27:24;;;;;;;5.68;3.72;;;;;;;;;;5051277;28;20501;-55
2021/10/24 10:29:57;;;;;;;5.22;3.42;;;;;;;;;;5051528;28;20532;-56
2021/10/24 10:32:33;;;;;;;7.40;4.00;;;;;;;;;;5052007;28;20074;-56
2021/10/24 10:35:02;;;;;;;6.93;3.83;;;;;;;;;;5052195;28;20028;-55
2021/10/24 10:37:48;;;;;;;6.47;4.22;;;;;;;;;;5051162;28;20033;-56
2021/10/24 10:40:21;;;;;;;4.72;4.20;;;;;;;;;;5051692;28;20160;-56
2021/10/24 10:42:48;;;;;;;5.47;4.30;;;;;;;;;;5052200;28;20021;-56
2021/10/24 10:45:14;;;;;;;5.13;4.03;;;;;;;;;;5051575;28;20029;-56
2021/10/24 10:47:53;;;;;;;5.78;3.65;;;;;;;;;;5051196;28;20027;-56
2021/10/24 10:50:26;;;;;;;4.53;3.20;;;;;;;;;;5051845;28;20025;-56
2021/10/24 10:52:52;;;;;;;6.22;4.72;;;;;;;;;;5051661;28;20378;-55
2021/10/24 10:55:17;;;;;;;9.20;4.30;;;;;;;;;;5051616;28;20025;-53
2021/10/24 10:57:43;;;;;;;7.55;4.57;;;;;;;;;;5050782;28;20463;-56
2021/10/24 11:00:28;;;;;;;9.00;3.67;;;;;;;;;;5051826;28;20044;-56
2021/10/24 11:02:54;;;;;;;5.95;3.67;;;;;;;;;;5051841;28;20094;-59
2021/10/24 11:05:39;;;;;;;9.57;3.67;;;;;;;;;;5051363;28;20477;-58
2021/10/24 11:08:06;;;;;;;5.68;3.80;;;;;;;;;;5051220;28;20032;-58
2021/10/24 11:10:45;;;;;;;6.50;4.30;;;;;;;;;;5050759;28;20045;-58
2021/10/24 11:13:26;;;;;;;8.20;4.18;;;;;;;;;;5051493;28;20033;-59
2021/10/24 11:15:53;;;;;;;8.48;4.20;;;;;;;;;;5051327;28;20057;-59
2021/10/24 11:18:34;;;;;;;7.22;3.50;;;;;;;;;;5051286;28;20031;-59
2021/10/24 11:21:00;;;;;;;4.40;4.00;;;;;;;;;;5051756;28;20028;-59
2021/10/24 11:23:30;;;;;;;5.20;3.63;;;;;;;;;;5051408;28;20379;-58
2021/10/24 11:25:56;;;;;;;5.35;4.10;;;;;;;;;;5047616;28;20379;-59
2021/10/24 11:28:25;;;;;;;5.43;3.88;;;;;;;;;;5050133;28;20127;-58
2021/10/24 11:30:55;;;;;;;4.78;3.33;;;;;;;;;;5054360;28;20021;-58
2021/10/24 11:33:21;;;;;;;4.80;3.15;;;;;;;;;;5054732;28;20070;-59
2021/10/24 11:35:47;;;;;;;10.68;3.67;;;;;;;;;;5054643;28;20275;-59
2021/10/24 11:38:14;;;;;;;5.50;3.85;;;;;;;;;;5053932;28;20037;-59
2021/10/24 11:40:43;;;;;;;4.18;3.10;;;;;;;;;;5053880;28;20226;-58
2021/10/24 11:43:15;;;;;;;5.63;4.38;;;;;;;;;;5054818;28;20023;-59
2021/10/24 11:45:43;;;;;;;8.23;4.22;;;;;;;;;;5054476;28;20025;-59
2021/10/24 11:48:10;;;;;;;3.97;3.28;;;;;;;;;;5054254;28;20116;-59
2021/10/24 11:50:36;;;;;;;3.67;3.35;;;;;;;;;;5053671;28;20120;-59
2021/10/24 11:53:02;;;;;;;8.70;3.85;;;;;;;;;;5054336;28;20092;-59
2021/10/24 11:55:28;;;;;;;5.80;4.05;;;;;;;;;;5054311;28;20028;-59
2021/10/24 12:03:13;;;;;;;8.63;5.13;;;;;;;;;;5054397;28;20040;-59
2021/10/24 12:05:43;;;;;;;5.47;3.92;;;;;;;;;;5052126;28;20028;-59
2021/10/24 12:08:09;;;;;;;4.43;3.20;;;;;;;;;;5053544;28;20371;-56
2021/10/24 12:10:38;;;;;;;5.43;3.53;;;;;;;;;;5053690;28;20082;-56
2021/10/24 12:13:05;;;;;;;3.97;3.08;;;;;;;;;;5053884;28;20082;-56
2021/10/24 12:15:38;;;;;;;6.55;3.95;;;;;;;;;;5053326;28;20037;-56
2021/10/24 12:18:13;;;;;;;5.13;3.33;;;;;;;;;;5051017;28;20102;-56
2021/10/24 12:20:39;;;;;;;4.47;2.67;;;;;;;;;;5055163;28;20037;-57
2021/10/24 12:23:14;;;;;;;4.80;3.42;;;;;;;;;;5054899;28;20036;-56
2021/10/24 12:25:50;;;;;;;7.30;3.50;;;;;;;;;;5052599;28;20055;-56
2021/10/24 12:28:19;;;;;;;4.22;2.97;;;;;;;;;;5052145;28;20028;-56
2021/10/24 12:30:58;;;;;;;3.95;2.60;;;;;;;;;;5052768;28;20109;-56
2021/10/24 12:33:28;;;;;;;4.75;3.30;;;;;;;;;;5049271;28;20074;-56
2021/10/24 12:35:55;;;;;;;4.50;2.85;;;;;;;;;;5053412;28;20029;-56
2021/10/24 12:38:21;;;;;;;5.22;3.60;;;;;;;;;;5060294;28;20596;-56
2021/10/24 12:41:06;;;;;;;3.95;2.47;;;;;;;;;;5054664;28;20359;-57
2021/10/24 12:43:32;;;;;;;6.20;3.70;;;;;;;;;;5051573;28;20359;-56
2021/10/24 12:45:58;;;;;;;6.15;3.95;;;;;;;;;;5052913;28;20036;-57
2021/10/24 12:48:38;;;;;;;3.83;3.33;;;;;;;;;;5049275;28;20385;-55
2021/10/24 12:51:18;;;;;;;7.07;3.85;;;;;;;;;;5052894;28;20083;-56
2021/10/24 12:53:44;;;;;;;5.30;3.90;;;;;;;;;;5048337;28;20032;-56
2021/10/24 12:56:10;;;;;;;4.35;3.05;;;;;;;;;;5048328;28;20040;-57
2021/10/24 12:58:36;;;;;;;5.40;2.88;;;;;;;;;;5047688;28;20382;-56
2021/10/24 13:01:03;;;;;;;5.22;3.55;;;;;;;;;;5047926;28;20032;-56
2021/10/24 13:03:29;;;;;;;7.10;3.72;;;;;;;;;;5049551;28;20114;-59
2021/10/24 13:05:55;;;;;;;5.38;3.30;;;;;;;;;;5048122;28;20051;-59
2021/10/24 13:08:21;;;;;;;5.32;3.58;;;;;;;;;;5048896;28;20498;-59
2021/10/24 13:10:47;;;;;;;3.83;3.03;;;;;;;;;;5053416;28;20467;-59
2021/10/24 13:13:13;;;;;;;5.63;3.65;;;;;;;;;;5050748;28;20043;-59
2021/10/24 13:15:43;;;;;;;5.47;3.38;;;;;;;;;;5052715;28;20033;-58
2021/10/24 13:18:10;;;;;;;5.95;3.50;;;;;;;;;;5052080;28;20029;-59
2021/10/24 13:20:39;;;;;;;7.95;4.40;;;;;;;;;;5040381;28;20455;-59
2021/10/24 13:23:06;;;;;;;6.97;3.58;;;;;;;;;;5039989;28;20059;-59
2021/10/24 13:25:32;;;;;;;6.53;3.92;;;;;;;;;;5052581;28;20021;-59
2021/10/24 13:27:58;;;;;;;5.38;3.95;;;;;;;;;;5051640;28;20091;-59
2021/10/24 13:30:25;;;;;;;4.78;3.13;;;;;;;;;;5052644;28;20104;-59
2021/10/24 13:32:52;;;;;;;4.60;3.42;;;;;;;;;;5052199;28;20055;-57
2021/10/24 13:35:19;;;;;;;6.30;3.35;;;;;;;;;;5048886;28;20032;-59
2021/10/24 13:37:45;;;;;;;4.25;3.33;;;;;;;;;;5050861;28;20112;-59
2021/10/24 13:40:12;;;;;;;7.00;4.03;;;;;;;;;;5051842;28;20567;-59
2021/10/24 13:42:38;;;;;;;6.15;3.88;;;;;;;;;;5051913;28;20028;-59
2021/10/24 13:45:05;;;;;;;4.72;3.05;;;;;;;;;;5047470;28;20029;-59
2021/10/24 13:47:31;;;;;;;5.70;3.92;;;;;;;;;;5045962;28;20071;-58
2021/10/24 13:49:57;;;;;;;6.03;3.33;;;;;;;;;;5047228;28;20101;-59
2021/10/24 13:52:23;;;;;;;3.92;3.60;;;;;;;;;;5045656;28;20088;-59
2021/10/24 13:54:49;;;;;;;8.18;3.92;;;;;;;;;;5046612;28;20493;-58
2021/10/24 13:57:15;;;;;;;4.03;3.05;;;;;;;;;;5046148;28;20483;-58
2021/10/24 13:59:41;;;;;;;4.68;3.20;;;;;;;;;;5047117;28;20213;-59
2021/10/24 14:02:08;;;;;;;5.45;2.80;;;;;;;;;;5047029;28;20402;-57
2021/10/24 14:04:35;;;;;;;8.48;3.17;;;;;;;;;;5046608;28;20025;-59
2021/10/24 14:07:01;;;;;;;4.22;3.05;;;;;;;;;;5045975;28;20078;-58
2021/10/24 14:09:26;;;;;;;6.13;3.30;;;;;;;;;;5047794;28;20064;-59
2021/10/24 14:11:52;;;;;;;8.50;3.33;;;;;;;;;;5047093;28;20054;-59
2021/10/24 14:14:19;;;;;;;6.25;3.30;;;;;;;;;;5046745;28;20017;-59
2021/10/24 14:16:45;;;;;;;4.00;3.10;;;;;;;;;;5049209;28;20148;-60
2021/10/24 14:19:11;;;;;;;8.75;3.83;;;;;;;;;;5050227;28;20055;-57
2021/10/24 14:21:37;;;;;;;4.57;2.67;;;;;;;;;;5046591;28;20021;-58
2021/10/24 14:24:03;;;;;;;5.13;3.40;;;;;;;;;;5046481;28;20029;-59
2021/10/24 14:26:29;;;;;;;6.30;3.25;;;;;;;;;;5046444;28;20181;-58
2021/10/24 14:28:57;;;;;;;4.32;2.92;;;;;;;;;;5046468;28;20116;-59
2021/10/24 14:31:23;;;;;;;6.45;3.00;;;;;;;;;;5046326;28;20036;-58
2021/10/24 14:33:49;;;;;;;3.53;3.00;;;;;;;;;;5046857;28;21553;-59
2021/10/24 14:36:15;;;;;;;5.18;3.35;;;;;;;;;;5050532;28;20043;-60
2021/10/24 14:38:41;;;;;;;10.25;3.42;;;;;;;;;;5051522;28;20033;-60
2021/10/24 14:41:07;;;;;;;6.47;3.33;;;;;;;;;;5050336;28;20043;-60
2021/10/24 14:43:33;;;;;;;4.72;3.33;;;;;;;;;;5047212;28;20075;-60
2021/10/24 14:45:59;;;;;;;5.05;3.35;;;;;;;;;;5051403;28;20033;-60
2021/10/24 14:48:25;;;;;;;6.55;3.45;;;;;;;;;;5051105;28;20083;-61
2021/10/24 14:50:51;;;;;;;5.13;3.28;;;;;;;;;;5052216;28;20021;-60